Time;durP1;ratioP1;P1;durP2;ratioP2;P2;SDS_P1;SDS_P2;PMS_P1;PMS_P2;Temp;Humidity;BMP_temperature;BMP_pressure;BME280_temperature;BME280_humidity;BME280_pressure;Samples;Min_cycle;Max_cycle;Signal;HPM_P1;HPM_P2
2022/03/17 00:01:35;;;;;;;27.27;12.78;;;;;;;-4.62;65.92;102404.06;1933301;74;21034;-60
2022/03/17 00:04:05;;;;;;;35.48;16.70;;;;;;;-4.66;66.01;102398.75;1907134;73;21036;-60
2022/03/17 00:06:34;;;;;;;41.63;17.10;;;;;;;-4.70;66.19;102402.40;1892676;76;21114;-60
2022/03/17 00:09:07;;;;;;;51.63;19.17;;;;;;;-4.74;66.37;102402.64;1892749;76;21044;-61
2022/03/17 00:11:38;;;;;;;36.90;16.02;;;;;;;-4.75;66.51;102397.42;1892701;76;21530;-61
2022/03/17 00:14:08;;;;;;;34.60;16.05;;;;;;;-4.76;66.48;102396.52;1892744;76;21158;-60
2022/03/17 00:16:39;;;;;;;33.50;15.55;;;;;;;-4.77;66.45;102397.34;1933168;74;21026;-60
2022/03/17 00:19:10;;;;;;;33.85;15.43;;;;;;;-4.79;66.46;102392.94;1933292;74;21007;-58
2022/03/17 00:21:40;;;;;;;27.73;12.30;;;;;;;-4.79;66.43;102394.23;1931975;74;21488;-58
2022/03/17 00:24:10;;;;;;;32.35;15.43;;;;;;;-4.77;66.47;102393.48;1933786;74;21441;-58
2022/03/17 00:26:40;;;;;;;36.15;15.53;;;;;;;-4.76;66.50;102391.38;1931192;74;21038;-58
2022/03/17 00:32:04;;;;;;;24.07;10.48;;;;;;;-4.78;66.80;102386.56;1847994;77;21083;-56
2022/03/17 00:37:26;;;;;;;41.83;17.07;;;;;;;-4.80;66.73;102388.18;1862505;77;21063;-58
2022/03/17 00:39:57;;;;;;;41.85;16.93;;;;;;;-4.82;66.80;102385.94;1862505;77;21599;-58
2022/03/17 00:42:27;;;;;;;18.48;10.03;;;;;;;-4.85;66.90;102381.92;1860910;76;21097;-59
2022/03/17 00:44:56;;;;;;;29.72;13.58;;;;;;;-4.87;66.95;102381.88;1862231;77;21566;-59
2022/03/17 00:47:25;;;;;;;39.05;16.60;;;;;;;-4.87;66.98;102384.81;1862548;77;21151;-59
2022/03/17 00:49:53;;;;;;;32.58;13.98;;;;;;;-4.89;66.95;102386.44;1862457;77;21057;-58
2022/03/17 00:52:22;;;;;;;23.20;11.80;;;;;;;-4.89;67.10;102380.01;1862495;77;21191;-58
2022/03/17 00:54:51;;;;;;;31.10;11.12;;;;;;;-4.90;67.13;102379.55;1862529;77;21077;-58
2022/03/17 00:57:19;;;;;;;27.50;10.90;;;;;;;-4.90;66.92;102382.12;1862526;77;21057;-58
2022/03/17 00:59:49;;;;;;;16.62;6.80;;;;;;;-4.92;67.03;102380.75;1862497;77;21057;-58
2022/03/17 01:02:18;;;;;;;42.05;16.73;;;;;;;-4.93;67.20;102376.81;1862559;77;21082;-58
2022/03/17 01:04:47;;;;;;;40.08;17.60;;;;;;;-4.93;67.20;102376.81;1862651;77;21127;-58
2022/03/17 01:07:16;;;;;;;45.98;19.25;;;;;;;-4.94;67.23;102375.94;1862651;77;21544;-58
2022/03/17 01:09:44;;;;;;;27.75;11.53;;;;;;;-4.95;67.23;102373.29;1862240;77;21038;-66
2022/03/17 01:12:13;;;;;;;26.00;10.63;;;;;;;-4.96;67.34;102370.22;1863298;77;21085;-63
2022/03/17 01:14:42;;;;;;;25.48;12.25;;;;;;;-5.00;67.38;102372.16;1863129;77;21206;-62
2022/03/17 01:17:10;;;;;;;37.42;15.63;;;;;;;-5.02;67.22;102374.65;1861198;77;21131;-65
2022/03/17 01:19:39;;;;;;;21.55;11.57;;;;;;;-5.02;67.35;102373.78;1847802;77;21152;-70
2022/03/17 01:22:08;;;;;;;21.73;10.68;;;;;;;-5.01;67.42;102372.98;1854037;77;21042;-71
2022/03/17 01:24:36;;;;;;;46.77;17.73;;;;;;;-5.00;67.28;102373.45;1837572;77;21007;-70
2022/03/17 01:27:05;;;;;;;17.90;8.75;;;;;;;-5.00;67.24;102379.88;1846939;77;21179;-68
2022/03/17 01:29:34;;;;;;;29.52;11.57;;;;;;;-5.03;67.19;102384.47;1845298;77;21051;-66
2022/03/17 01:32:03;;;;;;;24.65;10.50;;;;;;;-5.05;67.17;102393.38;1822204;77;21167;-67
2022/03/17 01:34:32;;;;;;;27.35;11.55;;;;;;;-5.06;67.20;102388.16;1814285;78;21116;-68
2022/03/17 01:37:01;;;;;;;15.28;6.55;;;;;;;-5.07;67.23;102398.84;1829429;78;21124;-64
2022/03/17 01:39:30;;;;;;;22.05;8.20;;;;;;;-5.09;67.15;102401.73;1816699;78;21080;-64
2022/03/17 01:41:59;;;;;;;29.72;12.33;;;;;;;-5.10;67.16;102405.09;1833394;78;21136;-64
2022/03/17 01:44:28;;;;;;;19.80;8.43;;;;;;;-5.10;67.45;102399.95;1826662;78;21524;-61
2022/03/17 01:49:44;;;;;;;15.32;7.35;;;;;;;-5.06;67.32;102403.56;1834679;78;21048;-72
2022/03/17 01:52:13;;;;;;;14.50;7.30;;;;;;;-5.02;67.22;102402.03;1834909;78;21522;-74
2022/03/17 01:54:43;;;;;;;25.27;11.25;;;;;;;-5.04;67.22;102401.54;1834728;78;21608;-76
2022/03/17 01:57:12;;;;;;;16.97;7.62;;;;;;;-5.05;67.34;102403.65;1831386;78;21097;-79
2022/03/17 01:59:42;;;;;;;12.35;6.87;;;;;;;-5.05;67.29;102400.20;1823906;79;21508;-69
2022/03/17 02:02:12;;;;;;;17.90;8.10;;;;;;;-5.08;67.33;102398.34;1823803;79;21496;-69
2022/03/17 02:04:42;;;;;;;20.37;9.48;;;;;;;-5.10;67.35;102405.09;1823657;79;21140;-69
2022/03/17 02:07:11;;;;;;;17.87;6.72;;;;;;;-5.12;67.21;102393.86;1828030;78;21082;-70
2022/03/17 02:09:41;;;;;;;17.57;8.98;;;;;;;-5.14;67.21;102398.03;1834089;78;21481;-67
2022/03/17 02:15:03;;;;;;;15.13;7.55;;;;;;;-5.20;67.15;102405.81;1834206;78;21030;-74
2022/03/17 02:17:33;;;;;;;14.68;7.08;;;;;;;-5.22;67.35;102412.15;1834075;78;21669;-73
2022/03/17 02:20:03;;;;;;;16.25;8.33;;;;;;;-5.23;67.21;102414.25;1834179;78;21066;-73
2022/03/17 02:22:32;;;;;;;16.77;7.40;;;;;;;-5.22;67.16;102417.28;1833903;78;21109;-72
2022/03/17 02:27:49;;;;;;;16.65;7.35;;;;;;;-5.25;67.05;102408.16;1798163;80;21108;-67
2022/03/17 02:30:20;;;;;;;19.67;8.80;;;;;;;-5.24;67.07;102409.91;1797895;79;21446;-68
2022/03/17 02:32:50;;;;;;;21.27;8.05;;;;;;;-5.25;67.08;102406.88;1802747;79;21119;-69
2022/03/17 02:35:22;;;;;;;18.35;8.40;;;;;;;-5.25;67.00;102414.58;1804074;79;21580;-70
2022/03/17 02:37:55;;;;;;;10.78;6.20;;;;;;;-5.31;67.09;102416.80;1804034;79;21079;-71
2022/03/17 02:40:25;;;;;;;21.62;9.75;;;;;;;-5.33;67.12;102415.84;1803985;79;21574;-71
2022/03/17 02:42:54;;;;;;;11.93;5.95;;;;;;;-5.37;67.31;102404.94;1803994;79;21078;-72
2022/03/17 02:45:23;;;;;;;16.10;8.80;;;;;;;-5.40;67.47;102412.46;1804092;79;21555;-71
2022/03/17 02:47:52;;;;;;;11.80;6.70;;;;;;;-5.40;67.34;102413.75;1804296;79;21183;-76
2022/03/17 02:50:21;;;;;;;25.55;7.50;;;;;;;-5.39;67.22;102419.38;1804041;79;21537;-76
2022/03/17 02:52:49;;;;;;;9.70;6.20;;;;;;;-5.41;67.13;102423.55;1803992;79;21059;-73
2022/03/17 02:55:18;;;;;;;14.70;7.55;;;;;;;-5.44;67.07;102421.30;1803856;79;21154;-73
2022/03/17 02:57:49;;;;;;;17.52;8.35;;;;;;;-5.46;67.05;102422.91;1804006;79;21072;-72
2022/03/17 03:00:17;;;;;;;22.62;9.63;;;;;;;-5.49;67.08;102424.02;1803932;79;21134;-71
2022/03/17 03:02:46;;;;;;;20.85;9.70;;;;;;;-5.52;67.09;102417.43;1803946;79;21052;-69
2022/03/17 03:05:14;;;;;;;20.77;11.18;;;;;;;-5.54;67.08;102415.19;1803968;79;21158;-67
2022/03/17 03:08:04;;;;;;;20.20;8.03;;;;;;;-5.55;67.04;102422.80;1803807;79;21087;-68
2022/03/17 03:10:33;;;;;;;17.73;9.28;;;;;;;-5.60;67.07;102426.42;1748437;81;21068;-68
2022/03/17 03:13:02;;;;;;;18.95;9.65;;;;;;;-5.63;67.15;102426.24;1746855;81;21570;-73
2022/03/17 03:15:30;;;;;;;21.60;8.53;;;;;;;-5.65;67.23;102427.44;1746992;81;21207;-73
2022/03/17 03:18:02;;;;;;;16.50;7.35;;;;;;;-5.67;67.18;102426.88;1746612;82;21111;-68
2022/03/17 03:20:31;;;;;;;21.95;9.48;;;;;;;-5.69;67.21;102431.05;1746808;82;21158;-67
2022/03/17 03:23:00;;;;;;;20.62;10.13;;;;;;;-5.73;67.26;102428.72;1748245;81;21073;-67
2022/03/17 03:25:29;;;;;;;18.87;8.63;;;;;;;-5.75;67.32;102434.17;1746919;82;21215;-68
2022/03/17 03:27:57;;;;;;;17.75;8.15;;;;;;;-5.77;67.45;102437.43;1746993;82;21222;-68
2022/03/17 03:30:26;;;;;;;15.35;8.45;;;;;;;-5.79;67.45;102436.47;1747192;82;21096;-72
2022/03/17 03:32:55;;;;;;;12.03;5.45;;;;;;;-5.76;67.49;102444.34;1748200;81;21096;-73
2022/03/17 03:38:10;;;;;;;22.52;10.13;;;;;;;-5.73;67.40;102450.53;1746696;82;21088;-68
2022/03/17 03:40:39;;;;;;;15.65;8.58;;;;;;;-5.74;67.34;102452.59;1746788;82;21140;-67
2022/03/17 03:43:08;;;;;;;13.35;7.35;;;;;;;-5.76;67.37;102459.73;1748258;81;21207;-68
2022/03/17 03:45:36;;;;;;;19.37;8.35;;;;;;;-5.75;67.33;102455.10;1746675;81;21163;-66
2022/03/17 03:48:06;;;;;;;16.05;8.10;;;;;;;-5.76;67.31;102459.73;1746786;82;21188;-67
2022/03/17 03:50:37;;;;;;;20.62;8.80;;;;;;;-5.77;67.30;102460.52;1746789;82;21243;-67
2022/03/17 03:53:06;;;;;;;19.62;7.72;;;;;;;-5.73;67.38;102467.62;1748215;81;21128;-67
2022/03/17 03:55:34;;;;;;;14.75;7.35;;;;;;;-5.70;67.34;102471.23;1746643;81;21300;-68
2022/03/17 03:58:03;;;;;;;14.55;7.75;;;;;;;-5.68;67.32;102473.86;1746813;82;21133;-73
2022/03/17 04:00:32;;;;;;;19.32;8.45;;;;;;;-5.67;67.42;102475.64;1757488;81;21173;-73
2022/03/17 04:03:07;;;;;;;16.37;8.30;;;;;;;-5.62;67.38;102472.94;1770633;81;21498;-72
2022/03/17 04:05:33;;;;;;;11.15;5.30;;;;;;;-5.57;67.36;102476.64;1769591;81;21156;-71
2022/03/17 04:08:03;;;;;;;14.20;6.97;;;;;;;-5.54;67.33;102478.08;1770605;81;21538;-73
2022/03/17 04:10:32;;;;;;;17.20;9.33;;;;;;;-5.48;67.27;102473.67;1769766;81;21209;-73
2022/03/17 04:13:02;;;;;;;16.77;7.35;;;;;;;-5.43;67.20;102480.82;1834228;78;21138;-73
2022/03/17 04:15:31;;;;;;;15.98;7.65;;;;;;;-5.39;67.09;102481.00;1834305;78;21036;-64
2022/03/17 04:18:01;;;;;;;23.60;8.85;;;;;;;-5.34;66.94;102484.30;1834221;78;21044;-64
2022/03/17 04:20:30;;;;;;;17.98;7.62;;;;;;;-5.31;66.94;102487.03;1834150;78;21075;-67
2022/03/17 04:22:58;;;;;;;19.42;5.80;;;;;;;-5.26;66.91;102491.13;1804039;79;21151;-66
2022/03/17 04:25:27;;;;;;;18.48;8.18;;;;;;;-5.19;66.94;102486.80;1804052;79;21144;-70
2022/03/17 04:27:56;;;;;;;18.50;7.72;;;;;;;-5.14;66.99;102492.20;1804051;79;21116;-66
2022/03/17 04:30:25;;;;;;;14.23;6.28;;;;;;;-5.10;67.05;102499.25;1804186;79;21049;-67
2022/03/17 04:32:53;;;;;;;10.15;4.90;;;;;;;-4.94;67.13;102493.22;1828380;78;21055;-71
2022/03/17 04:35:22;;;;;;;12.00;5.58;;;;;;;-4.45;67.40;102498.33;1834208;78;21079;-70
2022/03/17 04:37:52;;;;;;;14.78;7.30;;;;;;;-3.87;67.11;102499.06;1834161;78;21116;-69
2022/03/17 04:40:21;;;;;;;15.25;6.55;;;;;;;-3.22;66.86;102501.66;1834240;78;21153;-67
2022/03/17 04:42:50;;;;;;;23.92;10.80;;;;;;;-2.65;66.73;102489.14;1834146;78;21051;-67
2022/03/17 04:45:19;;;;;;;16.05;6.67;;;;;;;-1.71;65.79;102506.80;1834333;78;21075;-69
2022/03/17 04:47:47;;;;;;;10.82;4.95;;;;;;;-1.33;65.63;102504.80;1834320;78;21191;-69
2022/03/17 04:50:16;;;;;;;13.22;7.05;;;;;;;-1.33;65.63;102504.80;1834310;78;21141;-69
2022/03/17 04:55:31;;;;;;;9.28;4.60;;;;;;;-1.09;63.32;102512.60;1834418;78;21052;-71
2022/03/17 04:57:59;;;;;;;22.70;7.60;;;;;;;-0.95;62.72;102513.55;1834368;78;21056;-71
2022/03/17 05:00:28;;;;;;;15.60;5.60;;;;;;;-0.69;62.45;102509.31;1834287;78;21190;-73
2022/03/17 05:02:57;;;;;;;12.53;6.33;;;;;;;-0.43;61.90;102511.09;1834325;78;21091;-66
2022/03/17 05:05:26;;;;;;;14.68;4.80;;;;;;;-0.11;61.11;102506.16;1804179;79;21132;-65
2022/03/17 05:07:57;;;;;;;15.08;6.85;;;;;;;0.23;60.85;102509.83;1823622;78;21050;-69
2022/03/17 05:10:28;;;;;;;12.28;5.42;;;;;;;0.46;60.07;102507.08;1828348;77;21102;-69
2022/03/17 05:12:56;;;;;;;16.57;6.35;;;;;;;0.82;60.32;102502.56;1819816;78;21216;-68
2022/03/17 05:15:25;;;;;;;10.28;5.17;;;;;;;0.99;59.33;102506.94;1819837;79;21074;-69
2022/03/17 05:17:54;;;;;;;13.48;5.85;;;;;;;1.27;58.48;102502.09;1820019;78;21133;-68
2022/03/17 05:20:22;;;;;;;17.95;6.20;;;;;;;1.52;58.03;102499.33;1819872;79;21128;-67
2022/03/17 05:22:52;;;;;;;11.40;3.77;;;;;;;1.75;57.87;102500.34;1819862;77;21038;-67
2022/03/17 05:25:22;;;;;;;8.78;4.75;;;;;;;1.92;56.35;102501.66;1819613;77;21555;-68
2022/03/17 05:27:51;;;;;;;14.98;6.70;;;;;;;2.04;56.61;102498.47;1820011;78;21059;-67
2022/03/17 05:30:20;;;;;;;17.15;6.47;;;;;;;2.19;55.55;102494.06;1819914;79;21117;-65
2022/03/17 05:32:49;;;;;;;13.32;6.20;;;;;;;2.45;55.03;102492.48;1819947;77;21106;-71
2022/03/17 05:35:18;;;;;;;10.45;5.20;;;;;;;2.61;54.13;102497.63;1819781;78;21078;-70
2022/03/17 05:37:48;;;;;;;10.40;5.45;;;;;;;2.76;53.28;102497.08;1820032;79;21152;-70
2022/03/17 05:40:18;;;;;;;9.03;4.92;;;;;;;2.99;52.85;102502.34;1819912;79;21042;-69
2022/03/17 05:42:53;;;;;;;13.22;6.67;;;;;;;3.13;51.68;102506.52;1819921;79;21559;-70
2022/03/17 05:45:27;;;;;;;9.13;4.65;;;;;;;3.28;50.95;102499.43;1819035;79;21070;-70
2022/03/17 05:47:59;;;;;;;12.65;4.62;;;;;;;3.54;51.35;102497.73;1790176;79;21128;-70
2022/03/17 05:50:30;;;;;;;17.80;7.12;;;;;;;3.98;51.30;102504.16;1790082;80;21141;-69
2022/03/17 05:52:59;;;;;;;13.83;6.25;;;;;;;4.42;50.38;102503.97;1790196;79;21066;-69
2022/03/17 05:55:28;;;;;;;8.38;4.30;;;;;;;4.70;49.47;102506.53;1790270;80;21091;-70
2022/03/17 05:57:57;;;;;;;10.85;5.35;;;;;;;4.95;49.32;102501.22;1815638;79;21028;-69
2022/03/17 06:00:27;;;;;;;11.20;4.37;;;;;;;5.12;48.35;102496.20;1820030;79;21554;-69
2022/03/17 06:02:57;;;;;;;10.13;4.92;;;;;;;5.25;47.62;102506.36;1819943;79;21044;-69
2022/03/17 06:05:27;;;;;;;10.10;4.12;;;;;;;5.44;47.15;102506.15;1819802;79;21068;-68
2022/03/17 06:08:00;;;;;;;12.73;5.80;;;;;;;5.74;46.77;102497.72;1819801;79;21092;-68
2022/03/17 06:10:32;;;;;;;13.72;5.50;;;;;;;6.10;46.20;102496.30;1820683;77;21646;-70
2022/03/17 06:13:03;;;;;;;13.75;5.25;;;;;;;6.37;45.13;102498.69;1825564;78;21151;-71
2022/03/17 06:15:38;;;;;;;8.45;4.22;;;;;;;6.53;44.17;102499.23;1825571;78;21583;-65
2022/03/17 06:18:05;;;;;;;8.05;4.17;;;;;;;6.62;44.49;102500.13;1824799;78;21132;-63
2022/03/17 06:20:37;;;;;;;13.15;5.80;;;;;;;6.65;43.69;102490.55;1825604;78;21062;-63
2022/03/17 06:23:07;;;;;;;12.75;4.95;;;;;;;6.93;43.35;102494.20;1824284;78;21074;-63
2022/03/17 06:25:37;;;;;;;12.90;5.80;;;;;;;7.08;41.93;102494.69;1825389;77;21171;-64
2022/03/17 06:28:06;;;;;;;13.85;4.65;;;;;;;7.30;42.09;102491.70;1825668;78;21093;-64
2022/03/17 06:30:35;;;;;;;9.73;4.65;;;;;;;7.56;41.82;102490.85;1825689;77;21049;-64
2022/03/17 06:33:05;;;;;;;8.98;4.47;;;;;;;7.72;41.31;102488.69;1825641;78;21073;-64
2022/03/17 06:35:35;;;;;;;9.00;3.55;;;;;;;7.80;40.35;102488.73;1820671;78;21180;-64
2022/03/17 06:38:07;;;;;;;10.48;3.98;;;;;;;7.74;38.85;102485.62;1789592;80;21552;-64
2022/03/17 06:40:37;;;;;;;7.95;4.17;;;;;;;7.76;38.74;102483.02;1789571;80;21089;-64
2022/03/17 06:45:55;;;;;;;8.08;3.72;;;;;;;8.16;38.01;102486.09;1831926;77;21063;-64
2022/03/17 06:48:24;;;;;;;12.63;4.50;;;;;;;8.19;37.68;102483.44;1832020;78;21519;-69
2022/03/17 06:50:53;;;;;;;10.38;5.10;;;;;;;8.22;36.97;102482.13;1831667;77;21741;-75
2022/03/17 06:53:21;;;;;;;10.60;4.20;;;;;;;8.54;36.76;102479.48;1831964;78;21073;-71
2022/03/17 06:55:50;;;;;;;6.22;3.35;;;;;;;8.78;36.31;102478.53;1832025;78;21078;-73
2022/03/17 06:58:19;;;;;;;6.40;3.75;;;;;;;9.17;36.12;102479.23;1832105;78;21162;-73
2022/03/17 07:00:47;;;;;;;8.18;3.90;;;;;;;9.51;35.25;102482.09;1832069;78;21066;-73
2022/03/17 07:03:16;;;;;;;10.18;3.27;;;;;;;9.85;34.83;102478.78;1831942;78;21148;-71
2022/03/17 07:05:45;;;;;;;9.63;2.95;;;;;;;9.91;34.02;102481.34;1832059;78;21030;-71
2022/03/17 07:08:13;;;;;;;5.75;3.33;;;;;;;9.51;33.27;102474.20;1832157;78;21496;-70
2022/03/17 07:10:42;;;;;;;8.20;3.35;;;;;;;9.34;33.48;102474.31;1831918;78;21518;-66
2022/03/17 07:13:11;;;;;;;11.03;3.58;;;;;;;9.83;33.07;102479.20;1832193;78;21073;-68
2022/03/17 07:15:40;;;;;;;7.80;3.62;;;;;;;10.13;32.40;102479.85;1832074;78;21555;-70
2022/03/17 07:18:09;;;;;;;12.13;4.08;;;;;;;10.55;32.24;102478.57;1832054;78;21113;-70
2022/03/17 07:20:38;;;;;;;13.75;4.62;;;;;;;11.07;32.14;102474.42;1831999;78;21065;-71
2022/03/17 07:23:06;;;;;;;15.53;3.70;;;;;;;11.15;31.03;102471.67;1832088;78;21046;-74
2022/03/17 07:25:35;;;;;;;10.88;4.45;;;;;;;11.12;30.98;102471.28;1832056;78;21070;-74
2022/03/17 07:28:04;;;;;;;10.35;4.00;;;;;;;11.22;30.91;102465.88;1832025;78;21066;-72
2022/03/17 07:30:34;;;;;;;8.05;4.28;;;;;;;11.24;30.10;102467.59;1831865;78;21216;-73
2022/03/17 07:33:02;;;;;;;11.15;4.37;;;;;;;11.16;29.59;102474.30;1831788;78;21069;-65
2022/03/17 07:35:31;;;;;;;9.43;3.72;;;;;;;11.12;29.83;102475.23;1832052;78;21155;-64
2022/03/17 07:38:02;;;;;;;11.65;3.95;;;;;;;11.28;29.69;102468.42;1832050;78;21085;-65
2022/03/17 07:40:30;;;;;;;4.55;3.10;;;;;;;11.55;29.04;102464.51;1801887;79;21176;-64
2022/03/17 07:43:00;;;;;;;7.20;4.10;;;;;;;11.75;29.04;102462.88;1806520;78;21136;-67
2022/03/17 07:45:30;;;;;;;10.25;4.40;;;;;;;11.74;28.62;102465.94;1828031;77;21544;-67
2022/03/17 07:48:13;;;;;;;9.03;4.60;;;;;;;11.89;28.76;102459.98;1770003;77;21165;-67
2022/03/17 07:50:43;;;;;;;12.37;4.67;;;;;;;11.87;29.21;102454.73;1797687;78;21093;-69
2022/03/17 07:53:12;;;;;;;26.15;5.30;;;;;;;12.31;29.21;102449.12;1794803;80;21119;-69
2022/03/17 07:55:42;;;;;;;12.23;3.87;;;;;;;12.83;28.54;102452.95;1794819;80;21042;-68
2022/03/17 07:58:11;;;;;;;7.53;3.72;;;;;;;12.60;28.51;102445.48;1794975;80;21061;-65
2022/03/17 08:00:42;;;;;;;10.80;5.30;;;;;;;11.83;28.66;102457.00;1794908;80;21139;-66
2022/03/17 08:03:13;;;;;;;10.40;4.15;;;;;;;10.29;29.48;102453.81;1854555;77;21061;-65
2022/03/17 08:05:41;;;;;;;8.10;3.80;;;;;;;9.79;29.70;102458.66;1856612;77;21066;-66
2022/03/17 08:08:09;;;;;;;9.38;4.42;;;;;;;8.31;30.51;102455.42;1856774;77;21136;-66
2022/03/17 08:10:38;;;;;;;8.63;5.15;;;;;;;7.17;31.37;102458.45;1856689;77;21062;-66
2022/03/17 08:13:08;;;;;;;11.15;4.17;;;;;;;6.14;32.58;102462.78;1856905;77;21517;-66
2022/03/17 08:15:38;;;;;;;8.55;3.98;;;;;;;5.30;33.42;102458.97;1856774;77;21102;-66
2022/03/17 08:18:08;;;;;;;9.45;5.12;;;;;;;4.98;34.14;102458.19;1856870;77;21034;-67
2022/03/17 08:20:41;;;;;;;10.03;4.08;;;;;;;4.77;34.54;102454.00;1856840;77;21484;-66
2022/03/17 08:23:11;;;;;;;9.33;5.62;;;;;;;4.68;35.00;102454.75;1857055;77;21132;-65
2022/03/17 08:25:40;;;;;;;12.98;4.87;;;;;;;4.75;35.03;102459.64;1856994;77;21558;-69
2022/03/17 08:28:09;;;;;;;9.05;5.35;;;;;;;5.89;34.96;102462.12;1856908;77;21110;-68
2022/03/17 08:30:38;;;;;;;7.05;3.50;;;;;;;6.48;34.03;102459.06;1835206;77;21618;-69
2022/03/17 08:33:07;;;;;;;7.28;4.03;;;;;;;6.55;34.16;102449.52;1824429;79;21086;-67
2022/03/17 08:35:36;;;;;;;12.30;4.85;;;;;;;8.34;32.92;102442.75;1824449;78;21606;-67
2022/03/17 08:38:04;;;;;;;19.02;4.65;;;;;;;9.20;31.77;102446.38;1824441;79;21059;-69
2022/03/17 08:40:35;;;;;;;13.30;4.85;;;;;;;8.17;32.32;102451.98;1823950;78;21154;-66
2022/03/17 08:43:04;;;;;;;16.45;5.30;;;;;;;7.20;33.04;102455.86;1826210;78;21042;-65
2022/03/17 08:51:07;;;;;;;9.30;4.33;;;;;;;5.61;34.92;102456.66;1856805;77;21501;-70
2022/03/17 08:53:36;;;;;;;6.20;3.85;;;;;;;5.29;35.70;102453.72;1835500;77;21192;-69
2022/03/17 08:56:06;;;;;;;10.75;4.20;;;;;;;4.97;35.97;102447.73;1829295;77;21505;-67
2022/03/17 08:58:37;;;;;;;8.70;4.33;;;;;;;5.14;36.29;102453.13;1852844;77;21014;-69
2022/03/17 09:01:06;;;;;;;11.70;4.03;;;;;;;5.67;36.07;102451.92;1862753;77;21065;-71
2022/03/17 09:03:34;;;;;;;12.98;5.22;;;;;;;5.68;35.26;102451.94;1863097;77;21054;-71
2022/03/17 09:06:03;;;;;;;7.25;3.92;;;;;;;5.40;35.29;102452.98;1834828;77;21038;-74
2022/03/17 09:08:32;;;;;;;6.30;3.33;;;;;;;5.19;35.43;102450.15;1826211;78;21082;-69
2022/03/17 09:11:01;;;;;;;10.18;4.10;;;;;;;4.96;35.62;102463.83;1826217;78;21144;-76
2022/03/17 09:13:29;;;;;;;9.38;4.80;;;;;;;4.70;35.78;102458.70;1826204;78;21062;-73
2022/03/17 09:15:58;;;;;;;9.78;4.47;;;;;;;4.50;36.11;102455.41;1826304;78;21066;-77
2022/03/17 09:18:27;;;;;;;13.60;5.25;;;;;;;4.32;36.33;102457.33;1826012;78;21101;-67
2022/03/17 09:20:56;;;;;;;13.45;5.28;;;;;;;4.11;36.49;102453.09;1827359;77;21085;-68
2022/03/17 09:23:25;;;;;;;11.30;4.35;;;;;;;3.97;36.88;102455.06;1832023;78;21130;-66
2022/03/17 09:25:57;;;;;;;15.38;4.85;;;;;;;4.59;37.06;102445.51;1831922;78;21204;-71
2022/03/17 09:28:26;;;;;;;4.87;2.55;;;;;;;5.00;36.59;102448.64;1832012;78;21141;-67
2022/03/17 09:30:56;;;;;;;9.05;4.42;;;;;;;4.81;36.29;102450.57;1832016;78;21071;-69
2022/03/17 09:33:25;;;;;;;13.60;5.12;;;;;;;4.39;36.55;102450.45;1830390;77;21069;-64
2022/03/17 09:35:55;;;;;;;15.95;5.28;;;;;;;3.99;36.88;102452.48;1824172;79;21541;-64
2022/03/17 09:38:25;;;;;;;3.67;2.40;;;;;;;3.76;37.37;102447.79;1823844;78;21067;-65
2022/03/17 09:40:53;;;;;;;8.03;4.22;;;;;;;3.63;37.48;102452.31;1823997;79;21064;-64
2022/03/17 09:43:22;;;;;;;11.43;5.58;;;;;;;3.70;38.16;102448.97;1823845;79;21146;-65
2022/03/17 09:45:54;;;;;;;7.95;4.72;;;;;;;4.00;38.09;102446.41;1823787;78;21526;-66
2022/03/17 09:48:24;;;;;;;17.98;4.92;;;;;;;5.25;37.66;102443.67;1823857;79;21138;-65
2022/03/17 09:51:01;;;;;;;11.73;5.42;;;;;;;5.58;36.70;102443.12;1822802;78;21048;-62
2022/03/17 09:53:31;;;;;;;10.40;5.00;;;;;;;5.41;36.54;102444.27;1828473;78;21585;-62
2022/03/17 09:56:00;;;;;;;10.45;5.03;;;;;;;5.00;36.58;102440.81;1831442;78;21203;-60
2022/03/17 09:58:28;;;;;;;17.75;5.22;;;;;;;5.47;36.67;102438.67;1829954;78;21063;-64
2022/03/17 10:00:59;;;;;;;9.73;3.62;;;;;;;5.25;36.50;102438.45;1842532;78;21062;-67
2022/03/17 10:03:29;;;;;;;7.42;4.08;;;;;;;4.88;36.78;102441.09;1841615;78;21043;-61
2022/03/17 10:05:58;;;;;;;13.35;4.45;;;;;;;4.67;36.80;102440.37;1841710;77;21121;-60
2022/03/17 10:08:27;;;;;;;10.75;4.60;;;;;;;5.43;36.65;102432.98;1842103;78;21465;-62
2022/03/17 10:10:56;;;;;;;11.38;4.28;;;;;;;6.75;35.64;102440.00;1843032;78;21055;-60
2022/03/17 10:13:28;;;;;;;11.48;4.37;;;;;;;7.05;34.88;102433.56;1834108;76;21066;-60
2022/03/17 10:16:20;;;;;;;11.03;4.40;;;;;;;6.62;34.75;102436.90;1824635;79;21066;-61
2022/03/17 10:18:46;;;;;;;6.53;2.90;;;;;;;6.17;34.80;102440.55;1823907;78;21066;-60
2022/03/17 10:21:18;;;;;;;8.25;3.45;;;;;;;6.32;34.78;102446.75;1824411;78;21054;-62
2022/03/17 10:23:49;;;;;;;5.97;3.12;;;;;;;7.25;34.31;102442.34;1824463;79;21054;-61
2022/03/17 10:26:43;;;;;;;9.00;4.22;;;;;;;8.02;33.16;102433.61;1824487;79;21079;-62
2022/03/17 10:29:23;;;;;;;4.22;2.70;;;;;;;7.91;32.60;102433.20;1824636;79;21066;-58
2022/03/17 10:32:01;;;;;;;6.50;3.85;;;;;;;8.42;32.11;102423.94;1824262;77;21180;-58
2022/03/17 10:34:32;;;;;;;10.38;3.90;;;;;;;7.76;32.10;102427.95;1824433;79;21063;-58
2022/03/17 10:37:07;;;;;;;6.08;3.65;;;;;;;7.09;32.49;102427.45;1824445;79;21197;-58
2022/03/17 10:39:44;;;;;;;9.80;3.87;;;;;;;6.25;32.62;102437.98;1824344;78;21062;-58
2022/03/17 10:42:16;;;;;;;9.03;4.30;;;;;;;5.59;33.32;102427.03;1824493;79;21034;-57
2022/03/17 10:44:51;;;;;;;10.88;3.45;;;;;;;6.30;34.10;102427.56;1826934;76;21011;-60
2022/03/17 10:47:27;;;;;;;7.60;3.87;;;;;;;6.89;33.51;102416.47;1822350;77;21148;-60
2022/03/17 10:50:11;;;;;;;9.35;4.40;;;;;;;6.34;32.96;102417.14;1817871;79;21115;-62
2022/03/17 10:52:49;;;;;;;9.83;4.03;;;;;;;5.58;33.48;102427.88;1805439;79;21525;-62
2022/03/17 10:55:24;;;;;;;8.93;4.80;;;;;;;5.19;34.31;102422.28;1819474;79;21109;-63
2022/03/17 10:58:14;;;;;;;10.43;4.20;;;;;;;6.22;34.37;102418.81;1820477;79;21066;-67
2022/03/17 11:00:55;;;;;;;7.10;3.08;;;;;;;7.34;33.98;102401.73;1820059;79;21607;-63
2022/03/17 11:03:24;;;;;;;7.28;3.33;;;;;;;8.25;32.83;102396.84;1802948;79;21048;-62
2022/03/17 11:05:53;;;;;;;5.78;3.37;;;;;;;8.35;31.72;102399.00;1790569;80;21482;-61
2022/03/17 11:08:22;;;;;;;8.38;4.30;;;;;;;8.03;31.77;102404.76;1791262;80;21119;-58
2022/03/17 11:10:51;;;;;;;7.87;3.27;;;;;;;7.35;32.10;102408.70;1790469;80;21142;-60
2022/03/17 11:13:20;;;;;;;11.90;3.85;;;;;;;7.38;32.53;102404.34;1791070;80;21083;-60
2022/03/17 11:16:01;;;;;;;8.63;3.58;;;;;;;7.64;32.61;102403.06;1790694;80;21515;-63
2022/03/17 11:18:32;;;;;;;6.17;3.50;;;;;;;7.54;32.44;102403.48;1791287;80;21148;-63
2022/03/17 11:21:16;;;;;;;7.15;3.58;;;;;;;7.00;32.52;102402.55;1791109;80;21123;-61
2022/03/17 11:23:56;;;;;;;13.70;4.78;;;;;;;6.49;32.78;102401.95;1791271;79;21072;-61
2022/03/17 11:26:37;;;;;;;9.23;3.67;;;;;;;6.26;33.47;102412.72;1791210;80;21068;-61
2022/03/17 11:29:08;;;;;;;7.33;3.98;;;;;;;5.97;33.60;102406.42;1791340;80;21550;-59
2022/03/17 11:31:52;;;;;;;11.33;4.25;;;;;;;5.58;33.90;102416.13;1800889;79;21046;-61
2022/03/17 11:34:48;;;;;;;9.23;3.98;;;;;;;5.27;34.10;102413.66;1797296;79;21176;-62
2022/03/17 11:37:26;;;;;;;9.13;4.00;;;;;;;4.98;34.71;102412.50;1818833;79;21054;-62
2022/03/17 11:39:58;;;;;;;12.37;3.77;;;;;;;4.61;35.15;102426.83;1802940;79;21050;-61
2022/03/17 11:42:38;;;;;;;11.38;3.95;;;;;;;4.31;35.35;102412.97;1791310;80;21037;-62
2022/03/17 11:45:16;;;;;;;6.58;3.92;;;;;;;4.14;35.69;102422.73;1791297;80;21066;-61
2022/03/17 11:47:47;;;;;;;9.65;3.45;;;;;;;4.10;35.68;102417.47;1790925;78;21525;-61
2022/03/17 11:50:37;;;;;;;8.05;3.67;;;;;;;4.11;35.83;102417.46;1791357;80;21062;-61
2022/03/17 11:53:21;;;;;;;8.23;2.62;;;;;;;4.39;35.81;102409.63;1791070;80;21053;-61
2022/03/17 11:55:57;;;;;;;3.40;1.87;;;;;;;4.79;35.53;102411.84;1791377;80;21481;-61
2022/03/17 11:58:33;;;;;;;7.65;2.70;;;;;;;5.16;35.47;102414.41;1791286;80;21136;-61
2022/03/17 12:01:11;;;;;;;7.53;3.45;;;;;;;5.13;34.50;102414.41;1792391;77;21619;-63
2022/03/17 12:03:55;;;;;;;5.15;3.10;;;;;;;4.74;34.59;102413.10;1814328;79;21112;-62
2022/03/17 12:06:24;;;;;;;;;;;;;;;4.34;34.91;102412.59;1823355;79;21057;-62